sensor_id;sensor_type;location;lat;lon;timestamp;P1;durP1;ratioP1;P2;durP2;ratioP2
50773;SDS011;36745;48.544;8.918;2022-12-18T00:00:16;89.22;;;31.77;;
50773;SDS011;36745;48.544;8.918;2022-12-18T00:03:36;99.72;;;37.70;;
50773;SDS011;36745;48.544;8.918;2022-12-18T00:06:56;94.07;;;35.78;;
50773;SDS011;36745;48.544;8.918;2022-12-18T00:10:15;86.60;;;32.65;;
50773;SDS011;36745;48.544;8.918;2022-12-18T00:13:38;101.53;;;38.40;;
50773;SDS011;36745;48.544;8.918;2022-12-18T00:16:58;92.40;;;34.75;;
50773;SDS011;36745;48.544;8.918;2022-12-18T00:20:19;77.10;;;29.40;;
50773;SDS011;36745;48.544;8.918;2022-12-18T00:23:45;83.88;;;33.97;;
50773;SDS011;36745;48.544;8.918;2022-12-18T00:27:06;95.15;;;34.33;;
50773;SDS011;36745;48.544;8.918;2022-12-18T00:30:26;99.47;;;34.75;;
50773;SDS011;36745;48.544;8.918;2022-12-18T00:33:45;81.32;;;31.00;;
50773;SDS011;36745;48.544;8.918;2022-12-18T00:37:05;71.43;;;26.67;;
50773;SDS011;36745;48.544;8.918;2022-12-18T00:40:25;91.88;;;29.58;;
50773;SDS011;36745;48.544;8.918;2022-12-18T00:43:45;94.18;;;31.75;;
50773;SDS011;36745;48.544;8.918;2022-12-18T00:47:05;86.43;;;31.90;;
50773;SDS011;36745;48.544;8.918;2022-12-18T00:50:25;93.15;;;28.70;;
50773;SDS011;36745;48.544;8.918;2022-12-18T00:53:45;88.82;;;29.63;;
50773;SDS011;36745;48.544;8.918;2022-12-18T00:57:05;97.88;;;30.77;;
50773;SDS011;36745;48.544;8.918;2022-12-18T01:00:25;103.97;;;37.25;;
50773;SDS011;36745;48.544;8.918;2022-12-18T01:03:44;103.05;;;36.40;;
50773;SDS011;36745;48.544;8.918;2022-12-18T01:07:05;100.50;;;32.47;;
50773;SDS011;36745;48.544;8.918;2022-12-18T01:10:25;96.85;;;30.38;;
50773;SDS011;36745;48.544;8.918;2022-12-18T01:13:45;82.55;;;30.77;;
50773;SDS011;36745;48.544;8.918;2022-12-18T01:17:05;84.55;;;29.27;;
50773;SDS011;36745;48.544;8.918;2022-12-18T01:20:25;83.00;;;29.85;;
50773;SDS011;36745;48.544;8.918;2022-12-18T01:23:45;82.07;;;30.20;;
50773;SDS011;36745;48.544;8.918;2022-12-18T01:27:05;97.45;;;34.70;;
50773;SDS011;36745;48.544;8.918;2022-12-18T01:30:25;118.82;;;37.83;;
50773;SDS011;36745;48.544;8.918;2022-12-18T01:33:45;115.57;;;37.28;;
50773;SDS011;36745;48.544;8.918;2022-12-18T01:37:08;109.50;;;35.33;;
50773;SDS011;36745;48.544;8.918;2022-12-18T01:40:28;108.40;;;36.05;;
50773;SDS011;36745;48.544;8.918;2022-12-18T01:51:02;73.32;;;27.48;;
50773;SDS011;36745;48.544;8.918;2022-12-18T01:54:23;74.63;;;29.02;;
50773;SDS011;36745;48.544;8.918;2022-12-18T01:57:43;71.70;;;26.95;;
50773;SDS011;36745;48.544;8.918;2022-12-18T02:01:02;72.38;;;27.50;;
50773;SDS011;36745;48.544;8.918;2022-12-18T02:04:23;78.10;;;27.70;;
50773;SDS011;36745;48.544;8.918;2022-12-18T02:15:18;60.80;;;21.53;;
50773;SDS011;36745;48.544;8.918;2022-12-18T02:18:45;94.90;;;34.15;;
50773;SDS011;36745;48.544;8.918;2022-12-18T02:26:14;86.45;;;31.92;;
50773;SDS011;36745;48.544;8.918;2022-12-18T02:29:57;81.82;;;27.65;;
50773;SDS011;36745;48.544;8.918;2022-12-18T02:33:18;68.20;;;27.73;;
50773;SDS011;36745;48.544;8.918;2022-12-18T02:36:40;79.70;;;29.25;;
50773;SDS011;36745;48.544;8.918;2022-12-18T02:40:03;66.03;;;24.10;;
50773;SDS011;36745;48.544;8.918;2022-12-18T02:43:24;78.35;;;30.00;;
50773;SDS011;36745;48.544;8.918;2022-12-18T02:46:45;79.18;;;30.70;;
50773;SDS011;36745;48.544;8.918;2022-12-18T02:50:30;83.90;;;31.98;;
50773;SDS011;36745;48.544;8.918;2022-12-18T02:53:52;92.35;;;32.45;;
50773;SDS011;36745;48.544;8.918;2022-12-18T02:57:19;84.38;;;32.72;;
50773;SDS011;36745;48.544;8.918;2022-12-18T03:01:24;88.53;;;32.78;;
50773;SDS011;36745;48.544;8.918;2022-12-18T03:08:21;86.68;;;31.35;;
50773;SDS011;36745;48.544;8.918;2022-12-18T03:11:46;90.50;;;32.08;;
50773;SDS011;36745;48.544;8.918;2022-12-18T03:15:38;96.28;;;33.17;;
50773;SDS011;36745;48.544;8.918;2022-12-18T03:19:07;93.18;;;30.92;;
50773;SDS011;36745;48.544;8.918;2022-12-18T03:22:31;94.05;;;31.90;;
50773;SDS011;36745;48.544;8.918;2022-12-18T03:25:54;105.32;;;34.85;;
50773;SDS011;36745;48.544;8.918;2022-12-18T03:29:21;106.20;;;35.10;;
50773;SDS011;36745;48.544;8.918;2022-12-18T03:36:31;98.88;;;32.45;;
50773;SDS011;36745;48.544;8.918;2022-12-18T03:39:51;112.10;;;34.58;;
50773;SDS011;36745;48.544;8.918;2022-12-18T03:43:16;130.70;;;36.05;;
50773;SDS011;36745;48.544;8.918;2022-12-18T03:46:54;108.28;;;34.25;;
50773;SDS011;36745;48.544;8.918;2022-12-18T03:54:13;123.45;;;35.88;;
50773;SDS011;36745;48.544;8.918;2022-12-18T03:57:34;139.75;;;37.50;;
50773;SDS011;36745;48.544;8.918;2022-12-18T04:00:55;129.35;;;37.25;;
50773;SDS011;36745;48.544;8.918;2022-12-18T04:04:19;122.65;;;36.90;;
50773;SDS011;36745;48.544;8.918;2022-12-18T04:07:40;128.10;;;36.65;;
50773;SDS011;36745;48.544;8.918;2022-12-18T04:11:01;133.77;;;37.38;;
50773;SDS011;36745;48.544;8.918;2022-12-18T04:14:21;144.27;;;39.05;;
50773;SDS011;36745;48.544;8.918;2022-12-18T04:17:43;146.45;;;39.53;;
50773;SDS011;36745;48.544;8.918;2022-12-18T04:21:07;139.80;;;40.30;;
50773;SDS011;36745;48.544;8.918;2022-12-18T04:24:27;141.57;;;38.42;;
50773;SDS011;36745;48.544;8.918;2022-12-18T04:27:46;133.43;;;38.70;;
50773;SDS011;36745;48.544;8.918;2022-12-18T04:31:06;120.78;;;36.85;;
50773;SDS011;36745;48.544;8.918;2022-12-18T04:34:26;128.18;;;36.65;;
50773;SDS011;36745;48.544;8.918;2022-12-18T04:37:46;128.23;;;36.70;;
50773;SDS011;36745;48.544;8.918;2022-12-18T04:41:05;127.32;;;39.40;;
50773;SDS011;36745;48.544;8.918;2022-12-18T04:44:25;116.80;;;35.88;;
50773;SDS011;36745;48.544;8.918;2022-12-18T04:47:45;109.80;;;37.03;;
50773;SDS011;36745;48.544;8.918;2022-12-18T04:51:05;134.23;;;38.15;;
50773;SDS011;36745;48.544;8.918;2022-12-18T04:54:25;138.77;;;36.28;;
50773;SDS011;36745;48.544;8.918;2022-12-18T04:57:45;138.23;;;36.33;;
50773;SDS011;36745;48.544;8.918;2022-12-18T05:01:05;146.93;;;40.63;;
50773;SDS011;36745;48.544;8.918;2022-12-18T05:04:26;140.13;;;37.45;;
50773;SDS011;36745;48.544;8.918;2022-12-18T05:07:46;133.68;;;39.67;;
50773;SDS011;36745;48.544;8.918;2022-12-18T05:11:07;131.07;;;36.22;;
50773;SDS011;36745;48.544;8.918;2022-12-18T05:14:28;116.95;;;34.60;;
50773;SDS011;36745;48.544;8.918;2022-12-18T05:17:48;130.52;;;33.53;;
50773;SDS011;36745;48.544;8.918;2022-12-18T05:21:08;123.15;;;33.90;;
50773;SDS011;36745;48.544;8.918;2022-12-18T05:24:28;121.47;;;33.60;;
50773;SDS011;36745;48.544;8.918;2022-12-18T05:27:48;107.85;;;32.00;;
50773;SDS011;36745;48.544;8.918;2022-12-18T05:31:08;127.28;;;34.33;;
50773;SDS011;36745;48.544;8.918;2022-12-18T05:34:27;110.07;;;32.05;;
50773;SDS011;36745;48.544;8.918;2022-12-18T05:37:47;116.00;;;34.25;;
50773;SDS011;36745;48.544;8.918;2022-12-18T05:41:07;132.60;;;37.90;;
50773;SDS011;36745;48.544;8.918;2022-12-18T05:44:27;154.27;;;34.55;;
50773;SDS011;36745;48.544;8.918;2022-12-18T05:47:47;119.30;;;33.60;;
50773;SDS011;36745;48.544;8.918;2022-12-18T05:51:08;127.53;;;32.83;;
50773;SDS011;36745;48.544;8.918;2022-12-18T05:54:29;103.25;;;29.58;;
50773;SDS011;36745;48.544;8.918;2022-12-18T05:57:50;149.40;;;29.67;;
50773;SDS011;36745;48.544;8.918;2022-12-18T06:01:14;155.73;;;31.27;;
50773;SDS011;36745;48.544;8.918;2022-12-18T06:04:35;117.03;;;28.70;;
50773;SDS011;36745;48.544;8.918;2022-12-18T06:07:55;127.85;;;30.92;;
50773;SDS011;36745;48.544;8.918;2022-12-18T06:11:19;95.53;;;30.17;;
50773;SDS011;36745;48.544;8.918;2022-12-18T06:14:40;108.35;;;32.35;;
50773;SDS011;36745;48.544;8.918;2022-12-18T06:18:00;109.38;;;32.38;;
50773;SDS011;36745;48.544;8.918;2022-12-18T06:21:20;104.68;;;33.05;;
50773;SDS011;36745;48.544;8.918;2022-12-18T06:24:41;113.53;;;33.95;;
50773;SDS011;36745;48.544;8.918;2022-12-18T06:28:00;112.78;;;32.88;;
50773;SDS011;36745;48.544;8.918;2022-12-18T06:31:20;98.20;;;31.52;;
50773;SDS011;36745;48.544;8.918;2022-12-18T06:34:40;91.43;;;30.98;;
50773;SDS011;36745;48.544;8.918;2022-12-18T06:38:00;101.43;;;30.98;;
50773;SDS011;36745;48.544;8.918;2022-12-18T06:41:21;95.32;;;31.55;;
50773;SDS011;36745;48.544;8.918;2022-12-18T06:44:41;100.53;;;30.75;;
50773;SDS011;36745;48.544;8.918;2022-12-18T06:48:00;85.13;;;30.52;;
50773;SDS011;36745;48.544;8.918;2022-12-18T06:51:20;95.40;;;33.30;;
50773;SDS011;36745;48.544;8.918;2022-12-18T06:54:42;97.78;;;32.85;;
50773;SDS011;36745;48.544;8.918;2022-12-18T06:58:02;105.63;;;35.10;;
50773;SDS011;36745;48.544;8.918;2022-12-18T07:01:22;119.47;;;32.88;;
50773;SDS011;36745;48.544;8.918;2022-12-18T07:04:41;110.13;;;33.70;;
50773;SDS011;36745;48.544;8.918;2022-12-18T07:08:01;109.70;;;34.28;;
50773;SDS011;36745;48.544;8.918;2022-12-18T07:11:21;112.35;;;34.20;;
50773;SDS011;36745;48.544;8.918;2022-12-18T07:14:41;111.97;;;33.45;;
50773;SDS011;36745;48.544;8.918;2022-12-18T07:18:01;113.10;;;33.35;;
50773;SDS011;36745;48.544;8.918;2022-12-18T07:21:21;103.85;;;31.67;;
50773;SDS011;36745;48.544;8.918;2022-12-18T07:24:41;114.22;;;33.88;;
50773;SDS011;36745;48.544;8.918;2022-12-18T07:28:01;106.38;;;32.33;;
50773;SDS011;36745;48.544;8.918;2022-12-18T07:31:22;107.93;;;34.25;;
50773;SDS011;36745;48.544;8.918;2022-12-18T07:34:42;104.72;;;32.72;;
50773;SDS011;36745;48.544;8.918;2022-12-18T07:38:02;104.82;;;32.05;;
50773;SDS011;36745;48.544;8.918;2022-12-18T07:41:22;115.95;;;37.83;;
50773;SDS011;36745;48.544;8.918;2022-12-18T07:44:42;109.97;;;33.28;;
50773;SDS011;36745;48.544;8.918;2022-12-18T07:48:02;98.35;;;31.50;;
50773;SDS011;36745;48.544;8.918;2022-12-18T07:51:22;120.43;;;33.92;;
50773;SDS011;36745;48.544;8.918;2022-12-18T07:54:41;113.50;;;34.13;;
50773;SDS011;36745;48.544;8.918;2022-12-18T07:58:02;110.35;;;33.35;;
50773;SDS011;36745;48.544;8.918;2022-12-18T08:01:22;100.20;;;29.77;;
50773;SDS011;36745;48.544;8.918;2022-12-18T08:04:43;103.70;;;32.70;;
50773;SDS011;36745;48.544;8.918;2022-12-18T08:08:03;93.78;;;32.42;;
50773;SDS011;36745;48.544;8.918;2022-12-18T08:11:23;85.57;;;29.63;;
50773;SDS011;36745;48.544;8.918;2022-12-18T08:14:44;103.55;;;31.30;;
50773;SDS011;36745;48.544;8.918;2022-12-18T08:18:07;104.65;;;31.95;;
50773;SDS011;36745;48.544;8.918;2022-12-18T08:21:28;102.60;;;34.30;;
50773;SDS011;36745;48.544;8.918;2022-12-18T08:24:49;93.55;;;29.67;;
50773;SDS011;36745;48.544;8.918;2022-12-18T08:28:09;88.03;;;29.92;;
50773;SDS011;36745;48.544;8.918;2022-12-18T08:31:29;98.78;;;33.03;;
50773;SDS011;36745;48.544;8.918;2022-12-18T08:34:50;102.43;;;31.70;;
50773;SDS011;36745;48.544;8.918;2022-12-18T08:38:10;102.28;;;32.80;;
50773;SDS011;36745;48.544;8.918;2022-12-18T08:41:30;107.47;;;34.28;;
50773;SDS011;36745;48.544;8.918;2022-12-18T08:44:50;102.35;;;33.08;;
50773;SDS011;36745;48.544;8.918;2022-12-18T08:48:09;105.47;;;33.58;;
50773;SDS011;36745;48.544;8.918;2022-12-18T08:51:29;103.72;;;34.80;;
50773;SDS011;36745;48.544;8.918;2022-12-18T08:54:49;104.32;;;33.53;;
50773;SDS011;36745;48.544;8.918;2022-12-18T08:58:09;114.85;;;35.42;;
50773;SDS011;36745;48.544;8.918;2022-12-18T09:01:29;110.32;;;34.97;;
50773;SDS011;36745;48.544;8.918;2022-12-18T09:04:49;103.55;;;35.55;;
50773;SDS011;36745;48.544;8.918;2022-12-18T09:08:09;102.78;;;34.15;;
50773;SDS011;36745;48.544;8.918;2022-12-18T09:11:29;114.57;;;44.33;;
50773;SDS011;36745;48.544;8.918;2022-12-18T09:14:49;107.68;;;37.85;;
50773;SDS011;36745;48.544;8.918;2022-12-18T09:18:09;111.35;;;37.45;;
50773;SDS011;36745;48.544;8.918;2022-12-18T09:21:30;107.85;;;35.45;;
50773;SDS011;36745;48.544;8.918;2022-12-18T09:24:52;139.60;;;46.50;;
50773;SDS011;36745;48.544;8.918;2022-12-18T09:28:18;207.43;;;68.70;;
50773;SDS011;36745;48.544;8.918;2022-12-18T09:31:38;166.70;;;57.22;;
50773;SDS011;36745;48.544;8.918;2022-12-18T09:34:57;112.38;;;42.00;;
50773;SDS011;36745;48.544;8.918;2022-12-18T09:38:18;138.45;;;49.58;;
50773;SDS011;36745;48.544;8.918;2022-12-18T09:41:40;120.43;;;42.60;;
50773;SDS011;36745;48.544;8.918;2022-12-18T09:45:01;112.07;;;39.78;;
50773;SDS011;36745;48.544;8.918;2022-12-18T09:48:26;119.07;;;42.55;;
50773;SDS011;36745;48.544;8.918;2022-12-18T09:52:04;106.60;;;38.13;;
50773;SDS011;36745;48.544;8.918;2022-12-18T09:55:39;120.30;;;40.08;;
50773;SDS011;36745;48.544;8.918;2022-12-18T09:59:02;112.72;;;40.45;;
50773;SDS011;36745;48.544;8.918;2022-12-18T10:02:24;111.70;;;38.13;;
50773;SDS011;36745;48.544;8.918;2022-12-18T10:09:07;108.45;;;38.50;;
50773;SDS011;36745;48.544;8.918;2022-12-18T10:12:44;93.63;;;38.00;;
50773;SDS011;36745;48.544;8.918;2022-12-18T10:20:03;100.00;;;35.97;;
50773;SDS011;36745;48.544;8.918;2022-12-18T10:27:37;100.63;;;35.38;;
50773;SDS011;36745;48.544;8.918;2022-12-18T10:30:49;99.57;;;34.15;;
50773;SDS011;36745;48.544;8.918;2022-12-18T10:34:10;98.40;;;35.80;;
50773;SDS011;36745;48.544;8.918;2022-12-18T10:37:34;103.18;;;36.13;;
50773;SDS011;36745;48.544;8.918;2022-12-18T10:40:56;89.80;;;35.10;;
50773;SDS011;36745;48.544;8.918;2022-12-18T10:44:22;100.35;;;35.63;;
50773;SDS011;36745;48.544;8.918;2022-12-18T10:47:46;100.45;;;35.63;;
50773;SDS011;36745;48.544;8.918;2022-12-18T10:51:07;105.90;;;37.25;;
50773;SDS011;36745;48.544;8.918;2022-12-18T10:54:27;92.22;;;34.60;;
50773;SDS011;36745;48.544;8.918;2022-12-18T10:57:49;91.43;;;34.65;;
50773;SDS011;36745;48.544;8.918;2022-12-18T11:04:35;92.57;;;34.92;;
50773;SDS011;36745;48.544;8.918;2022-12-18T11:08:18;105.07;;;37.90;;
50773;SDS011;36745;48.544;8.918;2022-12-18T11:11:41;100.13;;;36.92;;
50773;SDS011;36745;48.544;8.918;2022-12-18T11:15:26;104.40;;;37.67;;
50773;SDS011;36745;48.544;8.918;2022-12-18T11:18:48;97.22;;;38.30;;
50773;SDS011;36745;48.544;8.918;2022-12-18T11:25:59;100.22;;;39.08;;
50773;SDS011;36745;48.544;8.918;2022-12-18T11:29:23;97.90;;;40.40;;
50773;SDS011;36745;48.544;8.918;2022-12-18T11:32:48;102.72;;;41.97;;
50773;SDS011;36745;48.544;8.918;2022-12-18T11:36:12;103.25;;;41.35;;
50773;SDS011;36745;48.544;8.918;2022-12-18T11:39:35;105.88;;;41.50;;
50773;SDS011;36745;48.544;8.918;2022-12-18T11:43:19;105.30;;;42.78;;
50773;SDS011;36745;48.544;8.918;2022-12-18T11:46:47;123.13;;;47.50;;
50773;SDS011;36745;48.544;8.918;2022-12-18T11:50:19;97.18;;;40.17;;
50773;SDS011;36745;48.544;8.918;2022-12-18T11:53:43;99.38;;;41.78;;
50773;SDS011;36745;48.544;8.918;2022-12-18T11:57:23;96.20;;;41.58;;
50773;SDS011;36745;48.544;8.918;2022-12-18T12:20:05;85.10;;;37.97;;
50773;SDS011;36745;48.544;8.918;2022-12-18T12:27:31;100.65;;;43.00;;
50773;SDS011;36745;48.544;8.918;2022-12-18T12:42:13;90.95;;;36.67;;
50773;SDS011;36745;48.544;8.918;2022-12-18T12:45:58;72.95;;;35.05;;
50773;SDS011;36745;48.544;8.918;2022-12-18T12:49:21;87.22;;;37.17;;
50773;SDS011;36745;48.544;8.918;2022-12-18T12:52:45;87.53;;;37.70;;
50773;SDS011;36745;48.544;8.918;2022-12-18T12:56:11;86.10;;;38.17;;
50773;SDS011;36745;48.544;8.918;2022-12-18T13:06:47;79.18;;;35.10;;
50773;SDS011;36745;48.544;8.918;2022-12-18T13:13:55;95.32;;;42.00;;
50773;SDS011;36745;48.544;8.918;2022-12-18T13:20:48;91.03;;;39.88;;
50773;SDS011;36745;48.544;8.918;2022-12-18T13:24:27;96.28;;;40.60;;
50773;SDS011;36745;48.544;8.918;2022-12-18T13:28:00;90.25;;;41.05;;
50773;SDS011;36745;48.544;8.918;2022-12-18T13:38:47;105.70;;;47.20;;
50773;SDS011;36745;48.544;8.918;2022-12-18T13:42:31;112.53;;;47.78;;
50773;SDS011;36745;48.544;8.918;2022-12-18T13:49:40;129.27;;;51.95;;
50773;SDS011;36745;48.544;8.918;2022-12-18T13:53:02;92.90;;;43.78;;
50773;SDS011;36745;48.544;8.918;2022-12-18T13:56:25;101.53;;;45.17;;
50773;SDS011;36745;48.544;8.918;2022-12-18T13:59:50;89.60;;;41.30;;
50773;SDS011;36745;48.544;8.918;2022-12-18T14:03:20;93.07;;;41.05;;
50773;SDS011;36745;48.544;8.918;2022-12-18T14:06:45;101.03;;;42.65;;
50773;SDS011;36745;48.544;8.918;2022-12-18T14:10:11;124.20;;;53.13;;
50773;SDS011;36745;48.544;8.918;2022-12-18T14:13:37;120.53;;;51.08;;
50773;SDS011;36745;48.544;8.918;2022-12-18T14:17:01;124.70;;;52.63;;
50773;SDS011;36745;48.544;8.918;2022-12-18T14:20:20;102.45;;;45.10;;
50773;SDS011;36745;48.544;8.918;2022-12-18T14:23:41;126.07;;;53.45;;
50773;SDS011;36745;48.544;8.918;2022-12-18T14:27:12;115.68;;;50.45;;
50773;SDS011;36745;48.544;8.918;2022-12-18T14:30:45;106.65;;;47.40;;
50773;SDS011;36745;48.544;8.918;2022-12-18T14:34:05;107.25;;;46.30;;
50773;SDS011;36745;48.544;8.918;2022-12-18T14:37:34;99.10;;;42.58;;
50773;SDS011;36745;48.544;8.918;2022-12-18T14:41:00;107.45;;;44.40;;
50773;SDS011;36745;48.544;8.918;2022-12-18T14:44:31;93.85;;;41.00;;
50773;SDS011;36745;48.544;8.918;2022-12-18T14:47:51;107.68;;;43.45;;
50773;SDS011;36745;48.544;8.918;2022-12-18T14:51:17;104.18;;;41.00;;
50773;SDS011;36745;48.544;8.918;2022-12-18T14:54:39;105.60;;;43.50;;
50773;SDS011;36745;48.544;8.918;2022-12-18T14:57:59;99.25;;;41.17;;
50773;SDS011;36745;48.544;8.918;2022-12-18T15:01:23;97.45;;;42.03;;
50773;SDS011;36745;48.544;8.918;2022-12-18T15:05:03;100.27;;;42.27;;
50773;SDS011;36745;48.544;8.918;2022-12-18T15:08:34;106.35;;;42.75;;
50773;SDS011;36745;48.544;8.918;2022-12-18T15:11:56;98.47;;;40.30;;
50773;SDS011;36745;48.544;8.918;2022-12-18T15:18:52;96.13;;;41.85;;
50773;SDS011;36745;48.544;8.918;2022-12-18T15:22:17;98.43;;;41.92;;
50773;SDS011;36745;48.544;8.918;2022-12-18T15:25:37;101.07;;;41.30;;
50773;SDS011;36745;48.544;8.918;2022-12-18T15:28:57;96.95;;;42.15;;
50773;SDS011;36745;48.544;8.918;2022-12-18T15:32:19;104.05;;;42.05;;
50773;SDS011;36745;48.544;8.918;2022-12-18T15:35:39;105.45;;;42.10;;
50773;SDS011;36745;48.544;8.918;2022-12-18T15:38:59;97.35;;;40.63;;
50773;SDS011;36745;48.544;8.918;2022-12-18T15:42:18;88.07;;;40.03;;
50773;SDS011;36745;48.544;8.918;2022-12-18T15:45:56;91.32;;;39.83;;
50773;SDS011;36745;48.544;8.918;2022-12-18T15:49:16;98.40;;;41.83;;
50773;SDS011;36745;48.544;8.918;2022-12-18T15:52:39;103.72;;;40.70;;
50773;SDS011;36745;48.544;8.918;2022-12-18T15:56:02;87.00;;;37.50;;
50773;SDS011;36745;48.544;8.918;2022-12-18T15:59:40;95.93;;;36.97;;
50773;SDS011;36745;48.544;8.918;2022-12-18T16:03:00;89.15;;;36.58;;
50773;SDS011;36745;48.544;8.918;2022-12-18T16:06:20;100.15;;;39.25;;
50773;SDS011;36745;48.544;8.918;2022-12-18T16:09:41;102.03;;;40.47;;
50773;SDS011;36745;48.544;8.918;2022-12-18T16:13:01;105.68;;;41.20;;
50773;SDS011;36745;48.544;8.918;2022-12-18T16:16:21;103.05;;;40.80;;
50773;SDS011;36745;48.544;8.918;2022-12-18T16:19:44;96.00;;;38.50;;
50773;SDS011;36745;48.544;8.918;2022-12-18T16:23:04;93.90;;;38.80;;
50773;SDS011;36745;48.544;8.918;2022-12-18T16:26:24;94.90;;;39.53;;
50773;SDS011;36745;48.544;8.918;2022-12-18T16:29:43;103.40;;;41.17;;
50773;SDS011;36745;48.544;8.918;2022-12-18T16:33:03;108.15;;;45.72;;
50773;SDS011;36745;48.544;8.918;2022-12-18T16:36:23;151.70;;;61.83;;
50773;SDS011;36745;48.544;8.918;2022-12-18T16:39:43;127.72;;;51.20;;
50773;SDS011;36745;48.544;8.918;2022-12-18T16:43:03;118.93;;;49.20;;
50773;SDS011;36745;48.544;8.918;2022-12-18T16:46:23;108.40;;;43.30;;
50773;SDS011;36745;48.544;8.918;2022-12-18T16:49:43;108.85;;;45.83;;
50773;SDS011;36745;48.544;8.918;2022-12-18T16:53:07;109.53;;;45.33;;
50773;SDS011;36745;48.544;8.918;2022-12-18T16:56:26;109.55;;;42.95;;
50773;SDS011;36745;48.544;8.918;2022-12-18T16:59:46;107.78;;;45.28;;
50773;SDS011;36745;48.544;8.918;2022-12-18T17:03:09;121.03;;;50.50;;
50773;SDS011;36745;48.544;8.918;2022-12-18T17:06:30;111.53;;;45.78;;
50773;SDS011;36745;48.544;8.918;2022-12-18T17:09:51;114.88;;;49.10;;
50773;SDS011;36745;48.544;8.918;2022-12-18T17:13:12;128.13;;;54.17;;
50773;SDS011;36745;48.544;8.918;2022-12-18T17:16:32;122.63;;;52.88;;
50773;SDS011;36745;48.544;8.918;2022-12-18T17:19:51;119.85;;;51.50;;
50773;SDS011;36745;48.544;8.918;2022-12-18T17:23:11;134.68;;;54.15;;
50773;SDS011;36745;48.544;8.918;2022-12-18T17:26:31;119.20;;;49.17;;
50773;SDS011;36745;48.544;8.918;2022-12-18T17:29:51;127.90;;;52.88;;
50773;SDS011;36745;48.544;8.918;2022-12-18T17:33:11;121.15;;;49.10;;
50773;SDS011;36745;48.544;8.918;2022-12-18T17:36:31;121.50;;;50.47;;
50773;SDS011;36745;48.544;8.918;2022-12-18T17:39:51;121.40;;;51.13;;
50773;SDS011;36745;48.544;8.918;2022-12-18T17:43:11;138.40;;;55.25;;
50773;SDS011;36745;48.544;8.918;2022-12-18T17:46:31;125.72;;;54.90;;
50773;SDS011;36745;48.544;8.918;2022-12-18T17:49:52;126.97;;;54.42;;
50773;SDS011;36745;48.544;8.918;2022-12-18T17:53:12;112.35;;;50.65;;
50773;SDS011;36745;48.544;8.918;2022-12-18T17:56:31;124.25;;;51.15;;
50773;SDS011;36745;48.544;8.918;2022-12-18T17:59:51;127.30;;;53.20;;
50773;SDS011;36745;48.544;8.918;2022-12-18T18:03:11;115.50;;;50.65;;
50773;SDS011;36745;48.544;8.918;2022-12-18T18:06:31;133.40;;;60.50;;
50773;SDS011;36745;48.544;8.918;2022-12-18T18:09:51;114.32;;;50.08;;
50773;SDS011;36745;48.544;8.918;2022-12-18T18:13:16;107.57;;;50.67;;
50773;SDS011;36745;48.544;8.918;2022-12-18T18:16:57;120.45;;;50.40;;
50773;SDS011;36745;48.544;8.918;2022-12-18T18:20:16;122.80;;;51.50;;
50773;SDS011;36745;48.544;8.918;2022-12-18T18:23:36;125.03;;;56.72;;
50773;SDS011;36745;48.544;8.918;2022-12-18T18:26:56;143.02;;;61.28;;
50773;SDS011;36745;48.544;8.918;2022-12-18T18:30:18;168.82;;;73.15;;
50773;SDS011;36745;48.544;8.918;2022-12-18T18:33:38;301.23;;;118.15;;
50773;SDS011;36745;48.544;8.918;2022-12-18T18:36:58;227.93;;;96.70;;
50773;SDS011;36745;48.544;8.918;2022-12-18T18:40:18;187.07;;;83.78;;
50773;SDS011;36745;48.544;8.918;2022-12-18T18:43:39;184.18;;;80.20;;
50773;SDS011;36745;48.544;8.918;2022-12-18T18:46:59;134.30;;;63.20;;
50773;SDS011;36745;48.544;8.918;2022-12-18T18:50:19;126.13;;;58.25;;
50773;SDS011;36745;48.544;8.918;2022-12-18T18:53:40;118.72;;;52.53;;
50773;SDS011;36745;48.544;8.918;2022-12-18T18:57:01;150.40;;;67.22;;
50773;SDS011;36745;48.544;8.918;2022-12-18T19:00:21;116.43;;;52.55;;
50773;SDS011;36745;48.544;8.918;2022-12-18T19:03:41;112.63;;;52.17;;
50773;SDS011;36745;48.544;8.918;2022-12-18T19:07:01;121.28;;;50.67;;
50773;SDS011;36745;48.544;8.918;2022-12-18T19:10:21;106.63;;;48.40;;
50773;SDS011;36745;48.544;8.918;2022-12-18T19:13:40;106.57;;;49.40;;
50773;SDS011;36745;48.544;8.918;2022-12-18T19:17:03;116.40;;;53.15;;
50773;SDS011;36745;48.544;8.918;2022-12-18T19:20:22;154.65;;;71.28;;
50773;SDS011;36745;48.544;8.918;2022-12-18T19:23:42;120.57;;;56.13;;
50773;SDS011;36745;48.544;8.918;2022-12-18T19:27:02;126.63;;;59.85;;
50773;SDS011;36745;48.544;8.918;2022-12-18T19:30:22;113.28;;;55.80;;
50773;SDS011;36745;48.544;8.918;2022-12-18T19:33:43;115.32;;;51.22;;
50773;SDS011;36745;48.544;8.918;2022-12-18T19:37:05;129.88;;;55.05;;
50773;SDS011;36745;48.544;8.918;2022-12-18T19:40:25;130.15;;;56.47;;
50773;SDS011;36745;48.544;8.918;2022-12-18T19:43:45;121.18;;;56.15;;
50773;SDS011;36745;48.544;8.918;2022-12-18T19:47:05;119.60;;;52.20;;
50773;SDS011;36745;48.544;8.918;2022-12-18T19:50:25;122.90;;;54.22;;
50773;SDS011;36745;48.544;8.918;2022-12-18T19:53:45;131.60;;;56.65;;
50773;SDS011;36745;48.544;8.918;2022-12-18T19:57:05;141.50;;;61.30;;
50773;SDS011;36745;48.544;8.918;2022-12-18T20:00:26;141.65;;;62.53;;
50773;SDS011;36745;48.544;8.918;2022-12-18T20:03:46;165.45;;;69.25;;
50773;SDS011;36745;48.544;8.918;2022-12-18T20:07:05;165.82;;;70.55;;
50773;SDS011;36745;48.544;8.918;2022-12-18T20:10:25;180.57;;;72.90;;
50773;SDS011;36745;48.544;8.918;2022-12-18T20:13:45;195.13;;;79.20;;
50773;SDS011;36745;48.544;8.918;2022-12-18T20:17:05;155.07;;;67.03;;
50773;SDS011;36745;48.544;8.918;2022-12-18T20:20:25;139.13;;;63.75;;
50773;SDS011;36745;48.544;8.918;2022-12-18T20:23:45;145.30;;;63.08;;
50773;SDS011;36745;48.544;8.918;2022-12-18T20:27:04;146.70;;;62.95;;
50773;SDS011;36745;48.544;8.918;2022-12-18T20:30:24;146.38;;;65.40;;
50773;SDS011;36745;48.544;8.918;2022-12-18T20:33:44;129.07;;;58.13;;
50773;SDS011;36745;48.544;8.918;2022-12-18T20:37:04;132.45;;;58.17;;
50773;SDS011;36745;48.544;8.918;2022-12-18T20:40:24;137.52;;;62.40;;
50773;SDS011;36745;48.544;8.918;2022-12-18T20:43:44;132.70;;;59.55;;
50773;SDS011;36745;48.544;8.918;2022-12-18T20:47:04;136.10;;;59.17;;
50773;SDS011;36745;48.544;8.918;2022-12-18T20:50:24;130.32;;;58.40;;
50773;SDS011;36745;48.544;8.918;2022-12-18T20:53:44;140.75;;;62.58;;
50773;SDS011;36745;48.544;8.918;2022-12-18T20:57:05;135.15;;;61.58;;
50773;SDS011;36745;48.544;8.918;2022-12-18T21:00:25;147.80;;;66.22;;
50773;SDS011;36745;48.544;8.918;2022-12-18T21:03:45;154.93;;;63.10;;
50773;SDS011;36745;48.544;8.918;2022-12-18T21:07:05;150.65;;;63.53;;
50773;SDS011;36745;48.544;8.918;2022-12-18T21:10:25;148.00;;;64.65;;
50773;SDS011;36745;48.544;8.918;2022-12-18T21:13:44;129.10;;;60.47;;
50773;SDS011;36745;48.544;8.918;2022-12-18T21:17:04;127.45;;;59.25;;
50773;SDS011;36745;48.544;8.918;2022-12-18T21:20:24;111.60;;;51.65;;
50773;SDS011;36745;48.544;8.918;2022-12-18T21:23:44;120.20;;;54.67;;